Time;durP1;ratioP1;P1;durP2;ratioP2;P2;SDS_P1;SDS_P2;PMS_P1;PMS_P2;Temp;Humidity;BMP_temperature;BMP_pressure;BME280_temperature;BME280_humidity;BME280_pressure;Samples;Min_cycle;Max_cycle;Signal;HPM_P1;HPM_P2
2022/02/18 00:02:19;;;;;;;1.87;1.00;;;;;;;7.53;60.10;98802.22;126318;1099;104169;-81
2022/02/18 00:05:06;;;;;;;2.43;1.10;;;;;;;7.55;60.25;98800.50;126305;1098;104140;-81
2022/02/18 00:07:38;;;;;;;2.03;1.37;;;;;;;7.56;60.76;98810.11;126321;1099;104308;-81
2022/02/18 00:10:11;;;;;;;1.60;1.13;;;;;;;7.56;60.34;98812.72;126203;1099;104213;-81
2022/02/18 00:12:42;;;;;;;1.87;1.20;;;;;;;7.58;60.47;98815.36;126076;1099;104290;-81
2022/02/18 00:15:14;;;;;;;1.70;1.30;;;;;;;7.59;60.05;98817.13;126015;1099;104657;-82
2022/02/18 00:17:46;;;;;;;4.27;1.90;;;;;;;7.62;60.18;98811.08;126119;1099;104227;-81
2022/02/18 00:20:17;;;;;;;2.77;1.50;;;;;;;7.62;60.37;98817.20;126033;1099;104207;-81
2022/02/18 00:22:49;;;;;;;2.17;1.63;;;;;;;7.62;60.93;98816.30;126051;1099;104383;-81
2022/02/18 00:25:21;;;;;;;2.60;1.87;;;;;;;7.65;61.26;98811.14;126011;1099;104235;-81
2022/02/18 00:27:54;;;;;;;2.43;1.47;;;;;;;7.69;60.63;98812.97;126221;1099;104287;-81
2022/02/18 00:30:26;;;;;;;2.03;1.63;;;;;;;7.73;60.90;98822.64;126238;1099;104641;-81
2022/02/18 00:32:57;;;;;;;2.63;1.60;;;;;;;7.76;61.73;98830.53;126213;1099;104229;-81
2022/02/18 00:35:29;;;;;;;3.50;1.77;;;;;;;7.77;61.57;98839.23;126122;1099;105527;-81
2022/02/18 00:38:02;;;;;;;1.90;1.60;;;;;;;7.74;61.59;98854.00;126247;1099;104258;-82
2022/02/18 00:40:35;;;;;;;2.13;1.70;;;;;;;7.70;61.25;98866.95;126241;1099;104185;-82
2022/02/18 00:43:07;;;;;;;2.33;1.67;;;;;;;7.66;62.14;98875.56;126326;1099;104144;-81
2022/02/18 00:45:38;;;;;;;3.57;2.10;;;;;;;7.58;62.98;98864.95;126253;1099;104215;-80
2022/02/18 00:48:11;;;;;;;4.00;2.33;;;;;;;7.53;62.55;98874.43;126324;1099;104130;-82
2022/02/18 00:50:43;;;;;;;4.13;1.90;;;;;;;7.50;63.91;98880.45;126363;1099;104155;-80
2022/02/18 00:53:16;;;;;;;3.90;2.43;;;;;;;7.47;63.15;98884.73;126364;1099;104140;-80
2022/02/18 00:55:50;;;;;;;5.50;2.60;;;;;;;7.47;64.42;98892.56;126317;1099;104149;-81
2022/02/18 00:58:23;;;;;;;6.20;2.63;;;;;;;7.47;64.07;98889.95;126391;1098;104694;-81
2022/02/18 01:00:55;;;;;;;3.15;2.30;;;;;;;7.44;65.41;98903.80;126302;1099;104176;-80
2022/02/18 01:03:26;;;;;;;4.90;2.60;;;;;;;7.41;66.62;98901.13;126346;1099;101674;-80
2022/02/18 01:05:57;;;;;;;5.90;3.03;;;;;;;7.38;65.41;98912.36;126300;1099;104280;-81
2022/02/18 01:08:29;;;;;;;4.37;2.83;;;;;;;7.34;66.28;98900.11;126354;1099;104143;-81
2022/02/18 01:11:00;;;;;;;4.53;2.63;;;;;;;7.29;65.57;98901.74;126340;1099;104182;-82
2022/02/18 01:13:36;;;;;;;1.77;1.67;;;;;;;7.26;66.03;98905.98;126298;1098;104280;-80
2022/02/18 01:16:10;;;;;;;2.60;1.93;;;;;;;7.19;67.48;98918.88;126307;1099;104130;-80
2022/02/18 01:18:45;;;;;;;3.93;2.20;;;;;;;7.12;66.46;98901.34;126311;1099;104168;-80
2022/02/18 01:21:16;;;;;;;2.37;1.93;;;;;;;7.05;65.94;98912.46;126360;1099;104143;-80
2022/02/18 01:23:48;;;;;;;4.07;2.17;;;;;;;7.01;66.15;98908.91;126350;1098;104241;-80
2022/02/18 01:26:22;;;;;;;2.63;2.03;;;;;;;6.98;66.65;98913.14;126275;1099;104310;-79
2022/02/18 01:28:57;;;;;;;3.60;2.07;;;;;;;6.94;66.73;98911.33;126304;1099;104252;-80
2022/02/18 01:31:29;;;;;;;4.53;1.97;;;;;;;6.89;66.01;98910.30;126329;1099;104181;-81
2022/02/18 01:34:01;;;;;;;3.40;2.03;;;;;;;6.86;65.93;98905.02;126346;1099;104137;-80
2022/02/18 01:36:33;;;;;;;2.27;1.70;;;;;;;6.80;65.51;98901.42;126332;1096;104274;-82
2022/02/18 01:39:06;;;;;;;4.43;2.47;;;;;;;6.78;65.74;98913.55;126245;1099;104360;-81
2022/02/18 01:41:41;;;;;;;3.37;2.00;;;;;;;6.76;66.11;98896.99;126353;1099;104216;-81
2022/02/18 01:44:31;;;;;;;3.47;1.87;;;;;;;6.73;65.96;98906.44;126347;1096;104159;-80
2022/02/18 01:47:05;;;;;;;3.10;1.77;;;;;;;6.69;65.79;98905.48;126328;1096;104134;-81
2022/02/18 01:49:37;;;;;;;4.07;1.93;;;;;;;6.66;65.93;98914.10;126316;1099;104248;-81
2022/02/18 01:52:09;;;;;;;3.27;1.83;;;;;;;6.65;65.82;98919.27;126306;1099;104380;-81
2022/02/18 01:54:41;;;;;;;4.90;2.00;;;;;;;6.62;66.11;98919.20;126328;1099;104171;-80
2022/02/18 01:57:14;;;;;;;3.10;1.90;;;;;;;6.60;65.42;98928.70;126328;1096;104155;-81
2022/02/18 01:59:46;;;;;;;3.67;2.10;;;;;;;6.59;66.31;98932.14;126265;1099;104175;-81
2022/02/18 02:02:17;;;;;;;4.37;2.07;;;;;;;6.56;66.25;98937.27;126357;1096;104210;-81
2022/02/18 02:04:49;;;;;;;3.47;1.90;;;;;;;6.54;65.85;98938.97;126287;1099;104334;-80
2022/02/18 02:07:27;;;;;;;2.67;1.80;;;;;;;6.53;66.79;98952.83;126320;1099;104175;-82
2022/02/18 02:09:59;;;;;;;2.50;2.07;;;;;;;6.53;67.43;98960.65;126311;1099;104284;-80
2022/02/18 02:12:30;;;;;;;4.33;1.87;;;;;;;6.55;67.02;98962.47;126298;1099;104245;-80
2022/02/18 02:15:02;;;;;;;3.53;1.60;;;;;;;6.54;67.02;98980.66;126316;1099;104232;-81
2022/02/18 02:17:33;;;;;;;3.73;1.97;;;;;;;6.54;67.20;98971.11;126202;1099;104303;-81
2022/02/18 02:20:06;;;;;;;5.67;2.10;;;;;;;6.55;67.00;98998.08;126328;1098;104264;-81
2022/02/18 02:22:40;;;;;;;3.83;1.77;;;;;;;6.55;67.28;98998.95;126263;1099;104681;-81
2022/02/18 02:25:11;;;;;;;4.30;1.80;;;;;;;6.58;67.03;99001.64;126256;1099;104393;-81
2022/02/18 02:27:43;;;;;;;6.37;1.70;;;;;;;6.59;67.16;99010.33;126154;1099;104548;-81
2022/02/18 02:30:17;;;;;;;3.63;2.00;;;;;;;6.60;66.74;99014.72;126178;1098;104428;-80
2022/02/18 02:32:56;;;;;;;3.40;1.93;;;;;;;6.61;66.70;99021.70;126219;1098;104245;-81
2022/02/18 02:35:55;;;;;;;4.27;1.80;;;;;;;6.60;66.22;99022.53;125263;1099;104334;-80
2022/02/18 02:38:33;;;;;;;2.30;1.60;;;;;;;6.61;66.89;99032.13;125305;1102;104232;-81
2022/02/18 02:41:09;;;;;;;2.37;1.73;;;;;;;6.62;66.72;99039.09;125308;1102;104412;-81
2022/02/18 02:43:42;;;;;;;2.83;1.83;;;;;;;6.61;66.66;99039.95;125267;1100;104236;-80
2022/02/18 02:46:17;;;;;;;3.57;2.17;;;;;;;6.61;66.37;99039.95;125273;1102;104444;-81
2022/02/18 02:48:53;;;;;;;2.77;2.10;;;;;;;6.63;66.49;99046.08;125240;1099;104205;-80
2022/02/18 02:51:35;;;;;;;5.28;2.40;;;;;;;6.64;66.39;99058.28;125329;1099;104201;-80
2022/02/18 02:54:08;;;;;;;4.77;2.10;;;;;;;6.62;66.59;99067.76;125281;1099;104188;-80
2022/02/18 02:56:48;;;;;;;3.80;2.50;;;;;;;6.61;66.43;99071.23;125166;1099;104450;-81
2022/02/18 02:59:32;;;;;;;3.63;2.13;;;;;;;6.58;66.49;99085.05;125262;1099;104293;-80
2022/02/18 03:02:05;;;;;;;;;;;;;;;6.56;66.74;99081.52;125330;1099;104296;-80
2022/02/18 03:04:37;;;;;;;2.90;2.03;;;;;;;6.54;66.91;99090.12;125985;1099;104210;-80
2022/02/18 03:07:09;;;;;;;2.77;2.10;;;;;;;6.53;66.62;99086.64;125411;1099;104316;-81
2022/02/18 03:09:41;;;;;;;4.20;2.30;;;;;;;6.51;66.89;99100.45;126162;1099;104143;-80
2022/02/18 03:12:21;;;;;;;3.90;2.10;;;;;;;6.49;66.69;99100.41;126209;1099;104300;-81
2022/02/18 03:14:56;;;;;;;5.60;2.20;;;;;;;6.48;66.74;99106.45;126243;1098;104150;-81
2022/02/18 03:17:37;;;;;;;4.90;2.50;;;;;;;6.48;66.84;99117.78;126199;1099;104176;-81
2022/02/18 03:20:29;;;;;;;2.67;2.43;;;;;;;6.48;66.82;99115.17;126196;1099;104152;-81
2022/02/18 03:23:01;;;;;;;4.23;2.23;;;;;;;6.47;66.94;99115.13;126189;1099;104194;-81
2022/02/18 03:25:33;;;;;;;3.77;2.17;;;;;;;6.47;66.91;99128.16;125291;1100;104261;-81
2022/02/18 03:28:05;;;;;;;3.33;2.10;;;;;;;6.48;66.94;99132.51;125273;1102;104142;-81
2022/02/18 03:30:37;;;;;;;3.87;2.47;;;;;;;6.50;67.32;99133.46;125288;1102;104188;-82
2022/02/18 03:33:11;;;;;;;3.00;2.10;;;;;;;6.50;67.52;99141.28;125297;1102;104287;-81
2022/02/18 03:35:43;;;;;;;4.23;2.40;;;;;;;6.51;67.49;99143.02;125291;1102;104159;-80
2022/02/18 03:38:16;;;;;;;3.85;2.40;;;;;;;6.52;66.93;99146.53;125262;1099;104296;-81
2022/02/18 03:40:52;;;;;;;3.67;2.20;;;;;;;6.52;67.13;99150.02;125659;1099;104339;-82
2022/02/18 03:43:24;;;;;;;3.30;2.10;;;;;;;6.54;67.11;99153.55;126257;1099;104303;-81
2022/02/18 03:46:14;;;;;;;2.80;1.83;;;;;;;6.55;66.93;99155.32;126265;1099;104149;-81
2022/02/18 03:48:45;;;;;;;3.00;2.10;;;;;;;6.55;66.90;99165.75;125246;1099;104332;-80
2022/02/18 03:51:17;;;;;;;4.37;2.40;;;;;;;6.54;66.95;99168.31;125302;1102;104440;-82
2022/02/18 03:53:49;;;;;;;3.37;2.17;;;;;;;6.53;67.09;99174.34;125273;1102;104182;-80
2022/02/18 03:56:25;;;;;;;5.93;2.50;;;;;;;6.52;67.03;99181.29;125338;1099;104653;-81
2022/02/18 03:58:58;;;;;;;;;;;;;;;6.50;66.99;99185.58;125847;1099;104659;-83
2022/02/18 04:01:29;;;;;;;4.37;2.40;;;;;;;6.48;67.58;99189.84;126231;1099;104172;-81
2022/02/18 04:04:01;;;;;;;5.97;2.47;;;;;;;6.47;67.13;99188.09;126194;1099;104328;-81
2022/02/18 04:07:11;;;;;;;3.17;2.00;;;;;;;6.48;67.39;99190.75;125257;1102;104309;-80
2022/02/18 04:09:49;;;;;;;3.27;2.10;;;;;;;6.48;67.31;99201.17;125050;1102;104178;-80
2022/02/18 04:12:26;;;;;;;4.40;2.30;;;;;;;6.48;67.52;99215.90;125764;1099;104705;-80
2022/02/18 04:15:07;;;;;;;4.50;2.23;;;;;;;6.48;67.57;99215.90;126171;1099;104124;-80
2022/02/18 04:17:39;;;;;;;5.10;2.42;;;;;;;6.47;67.72;99217.63;125475;1099;104326;-79
2022/02/18 04:20:31;;;;;;;4.07;2.60;;;;;;;6.49;67.46;99225.50;126170;1099;111376;-79
2022/02/18 04:23:03;;;;;;;6.73;2.40;;;;;;;6.47;67.48;99216.76;126354;1099;104175;-79
2022/02/18 04:25:38;;;;;;;5.00;2.33;;;;;;;6.48;67.47;99229.84;126320;1099;104165;-79
2022/02/18 04:28:09;;;;;;;3.20;2.20;;;;;;;6.48;67.66;99242.87;126317;1099;104146;-79
2022/02/18 04:30:42;;;;;;;4.10;2.60;;;;;;;6.48;67.81;99241.96;126278;1099;104245;-79
2022/02/18 04:33:15;;;;;;;5.47;3.00;;;;;;;6.46;67.17;99247.13;126318;1099;104207;-79
2022/02/18 04:35:47;;;;;;;4.17;2.40;;;;;;;6.50;67.00;99258.55;126369;1098;104146;-80
2022/02/18 04:38:18;;;;;;;6.63;2.40;;;;;;;6.48;66.91;99257.59;126332;1099;104210;-79
2022/02/18 04:40:50;;;;;;;5.87;2.43;;;;;;;6.47;66.72;99263.67;126279;1096;104140;-79
2022/02/18 04:43:21;;;;;;;5.73;2.67;;;;;;;6.46;66.68;99278.39;126400;1096;104185;-79
2022/02/18 04:45:52;;;;;;;6.80;2.60;;;;;;;6.45;66.49;99279.25;126340;1096;104225;-79
2022/02/18 04:48:24;;;;;;;3.77;2.43;;;;;;;6.42;66.36;99289.58;126361;1096;104175;-79
2022/02/18 04:50:56;;;;;;;4.00;2.20;;;;;;;6.39;66.18;99297.29;126295;1098;104143;-79
2022/02/18 04:53:27;;;;;;;5.10;2.80;;;;;;;6.36;66.10;99304.09;126286;1099;104161;-79
2022/02/18 04:55:58;;;;;;;6.80;2.07;;;;;;;6.32;66.21;99310.94;126343;1099;104146;-79
2022/02/18 04:58:30;;;;;;;5.20;2.37;;;;;;;6.29;66.27;99311.73;126361;1098;104178;-79
2022/02/18 05:01:01;;;;;;;5.47;2.60;;;;;;;6.28;66.09;99303.88;126292;1099;104156;-79
2022/02/18 05:03:33;;;;;;;5.60;2.80;;;;;;;6.27;66.06;99325.53;126329;1096;104172;-79
2022/02/18 05:06:04;;;;;;;8.20;2.80;;;;;;;6.21;66.26;99314.91;126303;1099;104223;-80
2022/02/18 05:08:36;;;;;;;5.33;2.50;;;;;;;6.16;66.11;99319.95;126372;1096;104123;-80
2022/02/18 05:11:07;;;;;;;4.63;2.80;;;;;;;6.13;65.98;99325.06;126247;1099;104245;-80
2022/02/18 05:13:39;;;;;;;6.57;2.67;;;;;;;6.09;66.25;99334.50;126340;1099;104143;-80
2022/02/18 05:16:10;;;;;;;8.30;3.10;;;;;;;6.08;66.33;99348.34;126195;1099;104367;-81
2022/02/18 05:18:42;;;;;;;6.70;2.73;;;;;;;6.05;66.25;99353.44;126274;1099;104210;-82
2022/02/18 05:21:15;;;;;;;5.90;3.03;;;;;;;6.02;66.27;99345.52;126159;1096;104242;-81
2022/02/18 05:23:47;;;;;;;7.13;2.83;;;;;;;6.00;66.52;99361.91;126224;1096;104274;-81
2022/02/18 05:26:18;;;;;;;7.37;3.03;;;;;;;5.98;66.60;99368.79;126169;1099;104217;-81
2022/02/18 05:28:50;;;;;;;4.50;2.73;;;;;;;5.97;66.52;99370.52;126192;1096;104337;-81
2022/02/18 05:31:21;;;;;;;9.53;2.97;;;;;;;5.96;66.56;99373.03;126136;1096;104149;-79
2022/02/18 05:33:53;;;;;;;11.70;2.93;;;;;;;5.96;66.57;99379.12;126117;1097;104143;-79
2022/02/18 05:36:27;;;;;;;5.53;2.85;;;;;;;5.97;66.33;99385.23;126225;1099;104210;-80
2022/02/18 05:38:59;;;;;;;5.70;2.67;;;;;;;5.98;65.93;99385.29;126121;1099;104271;-80
2022/02/18 05:41:30;;;;;;;5.03;2.60;;;;;;;6.00;66.22;99391.47;126198;1099;104253;-80
2022/02/18 05:44:01;;;;;;;8.47;3.00;;;;;;;6.03;65.72;99399.39;126279;1099;104309;-82
2022/02/18 05:46:33;;;;;;;6.03;2.87;;;;;;;6.04;66.03;99401.14;126324;1099;104146;-81
2022/02/18 05:49:08;;;;;;;8.73;3.03;;;;;;;6.08;66.18;99402.16;126093;1099;104165;-79
2022/02/18 05:51:39;;;;;;;5.50;3.20;;;;;;;6.09;66.15;99402.21;126071;1099;104198;-80
2022/02/18 05:54:11;;;;;;;9.37;3.73;;;;;;;6.09;65.85;99415.23;126163;1099;104214;-80
2022/02/18 05:56:42;;;;;;;7.27;3.00;;;;;;;6.10;65.93;99416.98;126192;1099;104303;-80
2022/02/18 05:59:13;;;;;;;8.30;3.50;;;;;;;6.10;65.82;99429.13;126239;1099;104214;-81
2022/02/18 06:01:45;;;;;;;9.53;2.97;;;;;;;6.13;65.85;99437.06;126206;1099;104147;-82
2022/02/18 06:04:19;;;;;;;6.87;3.40;;;;;;;6.14;66.04;99437.94;126244;1099;104229;-81
2022/02/18 06:06:50;;;;;;;6.00;3.10;;;;;;;6.12;65.64;99445.69;126227;1099;104178;-79
2022/02/18 06:09:21;;;;;;;9.93;3.90;;;;;;;6.09;66.21;99450.79;126254;1099;104288;-79
2022/02/18 06:11:55;;;;;;;7.53;3.43;;;;;;;6.08;65.70;99457.73;126200;1099;104246;-78
2022/02/18 06:14:27;;;;;;;6.80;3.70;;;;;;;6.09;65.53;99451.70;126228;1099;104166;-78
2022/02/18 06:16:58;;;;;;;9.75;3.40;;;;;;;6.06;65.96;99461.09;126265;1098;104141;-80
2022/02/18 06:19:29;;;;;;;9.70;3.40;;;;;;;6.05;66.08;99469.77;126185;1099;104284;-79
2022/02/18 06:22:01;;;;;;;9.03;4.07;;;;;;;6.05;65.95;99469.77;126214;1099;104597;-77
2022/02/18 06:24:32;;;;;;;10.23;4.03;;;;;;;6.02;66.30;99480.94;126228;1097;104153;-78
2022/02/18 06:27:05;;;;;;;11.40;4.00;;;;;;;5.97;65.97;99482.49;126185;1099;104169;-79
2022/02/18 06:29:36;;;;;;;8.40;3.80;;;;;;;5.99;66.30;99496.45;126308;1099;104207;-79
2022/02/18 06:32:12;;;;;;;8.30;3.90;;;;;;;5.98;66.11;99494.66;126085;1099;104268;-82
2022/02/18 06:34:44;;;;;;;8.70;4.20;;;;;;;5.97;66.57;99495.52;125996;1099;104277;-82
2022/02/18 06:37:20;;;;;;;8.93;4.03;;;;;;;5.96;66.61;99504.11;125992;1099;104162;-82
2022/02/18 06:39:53;;;;;;;13.60;4.20;;;;;;;5.98;66.34;99512.02;125982;1099;104222;-81
2022/02/18 06:42:27;;;;;;;10.13;4.40;;;;;;;5.99;66.66;99517.28;125778;1096;104230;-78
2022/02/18 06:45:00;;;;;;;11.50;4.30;;;;;;;6.03;66.61;99529.60;125820;1099;104240;-80
2022/02/18 06:47:35;;;;;;;9.43;3.87;;;;;;;6.09;66.67;99527.23;125775;1099;104255;-78
2022/02/18 06:50:10;;;;;;;11.20;4.33;;;;;;;6.09;66.84;99529.84;125899;1099;104209;-76
2022/02/18 06:52:42;;;;;;;8.00;3.77;;;;;;;6.15;66.95;99555.20;125984;1096;104194;-78
2022/02/18 06:55:14;;;;;;;10.03;3.80;;;;;;;6.22;66.41;99548.53;125830;1099;104671;-80
2022/02/18 06:57:52;;;;;;;10.10;4.00;;;;;;;6.27;66.49;99547.86;125753;1099;104399;-79
2022/02/18 07:00:27;;;;;;;8.63;4.07;;;;;;;6.33;66.38;99551.52;125849;1099;104165;-80
2022/02/18 07:03:02;;;;;;;7.90;3.80;;;;;;;6.39;66.24;99551.74;125811;1096;104169;-78
2022/02/18 07:05:40;;;;;;;11.80;3.67;;;;;;;6.43;66.03;99559.73;125869;1096;104232;-79
2022/02/18 07:08:14;;;;;;;10.03;4.03;;;;;;;6.53;66.21;99566.20;125875;1099;104715;-78
2022/02/18 07:10:48;;;;;;;8.20;4.00;;;;;;;6.58;66.31;99559.42;125913;1099;104431;-81
2022/02/18 07:13:23;;;;;;;6.50;3.60;;;;;;;6.55;66.29;99554.09;125732;1099;104341;-79
2022/02/18 07:15:57;;;;;;;11.30;3.97;;;;;;;6.55;65.99;99553.22;125917;1099;104146;-80
2022/02/18 07:18:32;;;;;;;7.50;3.67;;;;;;;6.54;65.73;99562.73;125777;1099;104270;-79
2022/02/18 07:21:04;;;;;;;12.57;3.90;;;;;;;6.57;65.94;99565.45;125888;1099;104173;-79
2022/02/18 07:23:39;;;;;;;7.50;3.23;;;;;;;6.51;65.27;99572.17;125959;1099;104296;-80
2022/02/18 07:26:15;;;;;;;8.50;3.50;;;;;;;6.50;65.54;99581.72;125714;1099;104367;-80
2022/02/18 07:28:54;;;;;;;12.15;3.92;;;;;;;6.56;65.73;99583.65;125924;1099;104283;-80
2022/02/18 07:31:35;;;;;;;8.63;3.40;;;;;;;6.57;65.92;99578.49;125800;1096;104262;-81
2022/02/18 07:34:10;;;;;;;9.60;3.70;;;;;;;6.63;65.82;99580.45;126019;1099;103260;-82
2022/02/18 07:36:51;;;;;;;7.90;3.43;;;;;;;6.75;65.85;99585.23;126178;1096;104329;-80
2022/02/18 07:39:25;;;;;;;8.63;3.40;;;;;;;6.84;65.80;99582.96;125946;1099;104235;-83
2022/02/18 07:42:04;;;;;;;13.70;3.50;;;;;;;6.87;65.62;99577.82;125850;1099;104203;-84
2022/02/18 07:44:42;;;;;;;9.13;3.40;;;;;;;6.97;65.55;99589.49;125730;1099;111810;-83
2022/02/18 07:47:33;;;;;;;9.40;3.23;;;;;;;7.00;65.55;99597.42;126063;1099;104207;-81
2022/02/18 07:50:12;;;;;;;9.00;3.50;;;;;;;7.06;65.11;99586.30;125146;1100;104452;-82
2022/02/18 07:52:48;;;;;;;8.37;3.60;;;;;;;7.17;65.37;99585.85;125830;1099;104322;-81
2022/02/18 07:55:23;;;;;;;8.93;3.50;;;;;;;7.30;64.76;99584.55;125812;1099;104223;-82
2022/02/18 07:58:05;;;;;;;8.73;3.50;;;;;;;7.39;64.70;99594.42;125129;1102;104358;-82
2022/02/18 08:00:51;;;;;;;7.07;3.23;;;;;;;7.47;64.65;99595.56;125208;1101;104226;-80
2022/02/18 08:03:28;;;;;;;7.30;3.03;;;;;;;7.47;64.31;99595.56;125873;1099;104141;-82
2022/02/18 08:06:06;;;;;;;8.13;3.30;;;;;;;7.58;63.78;99600.27;125156;1102;104416;-80
2022/02/18 08:08:42;;;;;;;7.17;3.30;;;;;;;7.63;62.84;99604.78;125229;1099;104217;-80
2022/02/18 08:11:18;;;;;;;6.73;3.30;;;;;;;7.73;63.20;99608.61;126054;1099;104667;-81
2022/02/18 08:13:54;;;;;;;5.23;2.80;;;;;;;7.73;62.82;99609.48;125312;1099;104679;-81
2022/02/18 08:16:32;;;;;;;4.93;2.77;;;;;;;7.83;63.29;99620.23;125190;1099;104226;-82
2022/02/18 08:19:13;;;;;;;6.67;2.95;;;;;;;7.87;61.67;99624.73;125232;1099;104332;-79
2022/02/18 08:21:46;;;;;;;5.73;3.10;;;;;;;7.94;61.81;99624.06;126055;1099;104287;-81
2022/02/18 08:24:19;;;;;;;5.57;3.10;;;;;;;8.09;61.97;99634.14;125833;1099;104120;-81
2022/02/18 08:26:59;;;;;;;8.73;3.05;;;;;;;8.18;62.31;99626.59;125890;1099;104236;-81
2022/02/18 08:29:33;;;;;;;6.60;2.90;;;;;;;8.26;61.53;99632.93;126014;1099;104288;-82
2022/02/18 08:32:14;;;;;;;9.60;3.20;;;;;;;8.30;61.24;99639.12;126050;1099;104149;-80
2022/02/18 08:34:52;;;;;;;9.30;3.42;;;;;;;8.37;60.94;99624.55;125850;1099;104182;-81
2022/02/18 08:37:31;;;;;;;7.67;3.10;;;;;;;8.44;60.04;99653.53;125927;1099;104238;-81
2022/02/18 08:40:11;;;;;;;5.55;2.85;;;;;;;8.34;59.31;99645.36;125955;1099;104229;-82
2022/02/18 08:42:57;;;;;;;4.53;2.73;;;;;;;8.43;59.69;99643.00;125930;1099;104185;-82
2022/02/18 08:45:31;;;;;;;5.50;2.90;;;;;;;8.54;58.78;99667.80;125904;1099;104576;-80
2022/02/18 08:48:04;;;;;;;9.17;3.33;;;;;;;8.60;58.63;99652.30;126010;1099;104143;-77
2022/02/18 08:50:37;;;;;;;10.27;3.17;;;;;;;8.67;59.44;99644.64;126050;1097;104319;-79
2022/02/18 08:53:17;;;;;;;7.57;3.27;;;;;;;8.77;59.70;99630.97;126041;1096;104454;-78
2022/02/18 08:55:56;;;;;;;4.67;3.00;;;;;;;8.97;59.06;99649.86;125927;1099;104172;-79
2022/02/18 08:58:34;;;;;;;6.97;3.00;;;;;;;9.00;58.89;99629.88;126092;1098;104437;-78
2022/02/18 09:01:40;;;;;;;6.57;2.70;;;;;;;9.10;57.99;99649.38;125883;1099;104258;-79
2022/02/18 09:04:20;;;;;;;6.57;2.80;;;;;;;9.14;58.03;99642.48;126069;1099;104258;-78
2022/02/18 09:06:59;;;;;;;6.20;2.80;;;;;;;9.16;58.18;99638.16;125902;1098;104185;-80
2022/02/18 09:09:34;;;;;;;7.57;2.90;;;;;;;9.21;58.04;99641.81;125884;1099;104635;-80
2022/02/18 09:12:20;;;;;;;;;;;;;;;;;;;;;
2022/02/18 09:15:00;;;;;;;6.30;2.80;;;;;;;9.28;57.23;99630.65;125955;1099;104381;-82
2022/02/18 09:18:04;;;;;;;8.00;2.93;;;;;;;9.25;56.44;99627.95;125874;1099;104331;-81
2022/02/18 09:21:07;;;;;;;4.63;2.20;;;;;;;9.27;56.35;99636.75;126213;1099;104258;-80
2022/02/18 09:23:47;;;;;;;6.77;2.43;;;;;;;9.36;56.55;99641.33;126131;1099;104364;-80
2022/02/18 09:26:30;;;;;;;7.60;2.93;;;;;;;9.41;56.05;99646.69;126093;1099;104251;-81
2022/02/18 09:29:08;;;;;;;4.70;2.60;;;;;;;9.47;56.42;99653.00;126018;1097;104153;-79
2022/02/18 09:31:44;;;;;;;8.87;2.67;;;;;;;9.46;56.35;99652.95;126082;1099;104140;-78
2022/02/18 09:34:20;;;;;;;8.60;2.60;;;;;;;9.50;55.16;99665.27;126152;1099;104726;-79
2022/02/18 09:39:53;;;;;;;5.67;2.37;;;;;;;9.54;55.00;99659.27;126010;1099;104222;-79
2022/02/18 09:42:37;;;;;;;9.03;2.73;;;;;;;9.62;55.02;99662.09;126169;1099;104191;-80
2022/02/18 09:45:34;;;;;;;4.03;2.10;;;;;;;9.58;53.79;99658.48;125871;1099;104201;-80
2022/02/18 09:48:24;;;;;;;4.97;2.67;;;;;;;9.51;53.38;99664.43;125918;1099;102982;-79
2022/02/18 09:51:03;;;;;;;9.07;3.00;;;;;;;9.45;54.37;99667.76;126111;1098;104374;-79
2022/02/18 09:53:39;;;;;;;6.93;2.67;;;;;;;9.58;54.02;99660.23;126016;1099;104185;-79
2022/02/18 09:56:15;;;;;;;8.13;2.77;;;;;;;9.55;53.92;99676.73;126179;1099;104207;-79
2022/02/18 09:58:53;;;;;;;9.77;3.77;;;;;;;9.32;53.54;99658.70;126259;1099;112298;-79
2022/02/18 10:01:30;;;;;;;5.73;2.60;;;;;;;9.21;53.02;99675.84;126299;1097;104187;-79
2022/02/18 10:04:06;;;;;;;11.00;3.50;;;;;;;9.10;53.62;99692.95;126142;1099;104188;-78
2022/02/18 10:06:46;;;;;;;8.10;2.97;;;;;;;8.98;52.71;99696.13;125920;1099;104184;-79
2022/02/18 10:09:39;;;;;;;6.23;3.07;;;;;;;9.13;53.51;99687.81;126335;1098;104152;-80
2022/02/18 10:12:13;;;;;;;6.83;3.10;;;;;;;9.33;53.12;99678.80;126310;1099;104169;-80
2022/02/18 10:15:24;;;;;;;5.37;2.73;;;;;;;9.57;53.91;99680.31;126223;1099;104152;-79
2022/02/18 10:18:03;;;;;;;;;;;;;;;9.79;51.72;99680.87;126110;1099;104171;-77
2022/02/18 10:20:37;;;;;;;8.60;2.72;;;;;;;9.96;52.93;99678.68;125993;1098;104262;-79
2022/02/18 10:23:17;;;;;;;6.00;3.00;;;;;;;10.13;51.89;99693.08;125883;1099;104695;-80
2022/02/18 10:25:58;;;;;;;8.80;3.27;;;;;;;10.16;52.03;99702.73;126122;1099;104156;-79
2022/02/18 10:29:06;;;;;;;5.70;2.80;;;;;;;9.92;52.07;99688.18;125786;1099;105453;-79
2022/02/18 10:31:43;;;;;;;9.83;3.00;;;;;;;9.63;52.14;99688.33;125763;1099;104339;-79
2022/02/18 10:37:13;;;;;;;9.37;3.53;;;;;;;9.28;52.02;99719.66;125584;1099;104284;-79
2022/02/18 10:39:48;;;;;;;6.33;3.00;;;;;;;9.22;52.87;99718.61;125658;1099;104246;-79
2022/02/18 10:42:22;;;;;;;10.40;3.43;;;;;;;9.13;52.80;99720.13;125765;1099;104159;-78
2022/02/18 10:45:11;;;;;;;9.47;4.03;;;;;;;9.04;52.83;99726.80;125632;1099;104351;-79
2022/02/18 10:47:51;;;;;;;10.77;3.30;;;;;;;8.93;52.60;99734.36;125510;1099;104185;-80
2022/02/18 10:50:27;;;;;;;10.53;3.30;;;;;;;8.85;53.25;99734.13;125130;1099;102805;-78
2022/02/18 10:53:20;;;;;;;10.33;3.40;;;;;;;8.82;52.75;99734.03;125076;1099;104161;-79
2022/02/18 10:55:55;;;;;;;7.57;3.30;;;;;;;8.74;53.74;99735.50;125649;1099;104220;-82
2022/02/18 10:58:34;;;;;;;9.80;3.50;;;;;;;8.71;53.83;99743.25;125678;1099;104392;-79
2022/02/18 11:01:15;;;;;;;7.93;3.13;;;;;;;8.68;53.79;99735.31;125545;1099;104181;-80
2022/02/18 11:03:49;;;;;;;8.73;3.47;;;;;;;8.69;54.34;99755.41;125460;1099;104444;-80
2022/02/18 11:06:25;;;;;;;6.60;3.22;;;;;;;8.63;55.72;99748.25;125734;1099;104313;-78
2022/02/18 11:09:00;;;;;;;9.53;3.57;;;;;;;8.54;55.47;99748.86;125970;1099;104185;-79
2022/02/18 11:11:35;;;;;;;9.00;3.70;;;;;;;8.50;55.56;99753.95;125149;1099;104184;-79
2022/02/18 11:14:12;;;;;;;6.60;3.40;;;;;;;8.56;55.04;99751.53;125950;1099;104152;-80
2022/02/18 11:16:52;;;;;;;11.33;3.57;;;;;;;8.72;55.28;99747.66;126173;1099;104174;-79
2022/02/18 11:19:24;;;;;;;4.37;2.67;;;;;;;8.84;54.61;99760.24;126007;1099;104194;-79
2022/02/18 11:22:06;;;;;;;5.30;2.73;;;;;;;8.66;55.91;99774.50;126039;1099;104209;-79
2022/02/18 11:24:41;;;;;;;5.37;2.30;;;;;;;8.20;56.41;99779.09;126070;1099;102513;-80
2022/02/18 11:27:15;;;;;;;3.63;2.07;;;;;;;7.85;58.25;99788.33;125990;1099;102520;-78
2022/02/18 11:29:48;;;;;;;6.40;2.70;;;;;;;7.59;57.55;99780.47;125659;1099;104224;-78
2022/02/18 11:32:27;;;;;;;3.87;2.37;;;;;;;7.45;58.07;99786.88;125885;1099;104236;-78
2022/02/18 11:35:21;;;;;;;8.03;2.73;;;;;;;7.31;58.10;99783.80;125939;1099;104188;-78
2022/02/18 11:38:27;;;;;;;7.27;2.87;;;;;;;7.19;59.27;99798.14;125855;1099;104373;-78
2022/02/18 11:41:15;;;;;;;3.30;2.37;;;;;;;7.07;59.26;99795.05;125851;1099;107902;-77
2022/02/18 11:43:50;;;;;;;5.77;2.80;;;;;;;7.04;59.79;99788.84;126132;1099;104163;-77
2022/02/18 11:46:30;;;;;;;7.05;2.85;;;;;;;7.09;59.44;99796.03;125943;1099;104207;-77
2022/02/18 11:49:02;;;;;;;9.03;3.37;;;;;;;7.16;59.43;99795.41;125962;1099;104200;-79
2022/02/18 11:51:47;;;;;;;12.10;3.20;;;;;;;7.21;59.82;99790.36;125889;1099;104146;-79
2022/02/18 11:54:30;;;;;;;6.70;3.30;;;;;;;7.26;60.29;99793.15;125783;1099;104159;-79
2022/02/18 11:57:29;;;;;;;9.33;3.63;;;;;;;7.43;59.61;99781.61;125887;1099;104277;-78
2022/02/18 12:00:47;;;;;;;10.77;3.63;;;;;;;7.59;59.84;99792.61;126033;1099;104233;-79
2022/02/18 12:03:41;;;;;;;12.87;3.73;;;;;;;7.75;59.35;99789.73;125143;1099;104223;-80
2022/02/18 12:06:31;;;;;;;9.87;3.37;;;;;;;7.89;59.69;99795.45;125184;1102;104219;-80
2022/02/18 12:09:13;;;;;;;9.50;3.70;;;;;;;8.00;59.23;99801.05;125060;1102;104268;-81
2022/02/18 12:12:13;;;;;;;;;;;;;;;;;;;;;
2022/02/18 12:15:10;;;;;;;8.17;3.20;;;;;;;8.15;58.98;99809.42;124984;1099;104439;-84
2022/02/18 12:17:50;;;;;;;12.60;3.20;;;;;;;8.28;57.58;99813.33;125040;1099;104373;-80